createdAt,value
2022-12-06T00:01:48.397Z,98956.28
2022-12-06T00:04:16.566Z,98952.56
2022-12-06T00:06:48.098Z,98957.94
2022-12-06T00:09:21.418Z,98954.59
2022-12-06T00:11:48.389Z,98950.09
2022-12-06T00:14:15.232Z,98954.41
2022-12-06T00:16:41.881Z,98951.72
2022-12-06T00:19:12.370Z,98952.56
2022-12-06T00:21:39.707Z,98947.25
2022-12-06T00:24:20.776Z,98944.75
2022-12-06T00:26:48.687Z,98946.38
2022-12-06T00:29:21.520Z,98945.50
2022-12-06T00:31:49.265Z,98942.25
2022-12-06T00:34:16.437Z,98942.16
2022-12-06T00:36:43.564Z,98944.75
2022-12-06T00:39:12.987Z,98940.44
2022-12-06T00:41:40.519Z,98934.28
2022-12-06T00:44:07.496Z,98929.69
2022-12-06T00:46:35.183Z,98923.91
2022-12-06T00:49:03.788Z,98926.00
2022-12-06T00:51:32.154Z,98918.16
2022-12-06T00:53:59.214Z,98916.34
2022-12-06T00:56:26.331Z,98914.47
2022-12-06T00:58:53.313Z,98921.28
2022-12-06T01:01:28.059Z,98916.00
2022-12-06T01:03:57.322Z,98918.50
2022-12-06T01:06:28.107Z,98924.50
2022-12-06T01:08:56.547Z,98920.94
2022-12-06T01:11:24.170Z,98920.13
2022-12-06T01:13:51.900Z,98927.06
2022-12-06T01:16:24.427Z,98921.84
2022-12-06T01:18:59.593Z,98913.31
2022-12-06T01:21:26.717Z,98922.69
2022-12-06T01:23:56.541Z,98919.22
2022-12-06T01:26:26.034Z,98917.47
2022-12-06T01:28:53.543Z,98919.97
2022-12-06T01:31:20.919Z,98919.09
2022-12-06T01:33:47.610Z,98918.19
2022-12-06T01:36:18.611Z,98928.56
2022-12-06T01:38:50.295Z,98919.91
2022-12-06T01:41:17.046Z,98913.81
2022-12-06T01:43:44.443Z,98910.41
2022-12-06T01:46:18.243Z,98910.47
2022-12-06T01:48:45.501Z,98923.47
2022-12-06T01:51:14.665Z,98920.22
2022-12-06T01:53:45.495Z,98920.97
2022-12-06T01:56:12.906Z,98909.66
2022-12-06T01:58:41.715Z,98913.09
2022-12-06T02:01:09.711Z,98908.69
2022-12-06T02:03:38.178Z,98909.47
2022-12-06T02:06:07.363Z,98917.19
2022-12-06T02:08:35.706Z,98916.41
2022-12-06T02:11:03.387Z,98908.84
2022-12-06T02:13:32.538Z,98908.75
2022-12-06T02:16:32.947Z,98902.81
2022-12-06T02:19:27.277Z,98908.84
2022-12-06T02:22:17.605Z,98907.31
2022-12-06T02:25:21.795Z,98917.47
2022-12-06T02:27:48.312Z,98914.13
2022-12-06T02:30:18.905Z,98915.78
2022-12-06T02:32:59.936Z,98920.97
2022-12-06T02:35:40.881Z,98916.56
2022-12-06T02:38:13.501Z,98916.50
2022-12-06T02:40:47.032Z,98909.56
2022-12-06T02:43:20.823Z,98907.78
2022-12-06T02:45:54.226Z,98904.56
2022-12-06T02:48:23.520Z,98896.94
2022-12-06T02:50:56.435Z,98902.97
2022-12-06T02:53:25.932Z,98895.41
2022-12-06T02:55:53.248Z,98896.50
2022-12-06T02:58:19.820Z,98891.38
2022-12-06T03:00:50.832Z,98893.09
2022-12-06T03:03:26.127Z,98900.72
2022-12-06T03:06:01.984Z,98901.69
2022-12-06T03:08:53.287Z,98894.81
2022-12-06T03:11:19.819Z,98885.41
2022-12-06T03:13:59.808Z,98881.75
2022-12-06T03:16:28.317Z,98880.78
2022-12-06T03:19:13.341Z,98874.56
2022-12-06T03:21:46.611Z,98881.03
2022-12-06T03:24:15.735Z,98883.44
2022-12-06T03:26:45.709Z,98885.41
2022-12-06T03:29:15.353Z,98885.22
2022-12-06T03:31:42.210Z,98890.34
2022-12-06T03:34:20.986Z,98887.66
2022-12-06T03:36:50.110Z,98898.94
2022-12-06T03:39:24.598Z,98904.94
2022-12-06T03:41:57.734Z,98904.91
2022-12-06T03:44:25.533Z,98900.69
2022-12-06T03:47:16.056Z,98901.59
2022-12-06T03:49:56.999Z,98898.03
2022-12-06T03:52:25.184Z,98895.59
2022-12-06T03:54:51.786Z,98886.13
2022-12-06T03:57:18.526Z,98881.75
2022-12-06T03:59:46.243Z,98880.13
2022-12-06T04:02:12.906Z,98880.03
2022-12-06T04:04:40.567Z,98890.31
2022-12-06T04:07:07.236Z,98878.09
2022-12-06T04:09:52.348Z,98878.09
2022-12-06T04:12:37.974Z,98873.78
2022-12-06T04:15:06.405Z,98880.84
2022-12-06T04:17:51.512Z,98871.53
2022-12-06T04:20:18.260Z,98874.94
2022-12-06T04:23:03.459Z,98878.47
2022-12-06T04:25:36.749Z,98879.34
2022-12-06T04:28:22.603Z,98878.34
2022-12-06T04:31:08.162Z,98877.38
2022-12-06T04:33:53.435Z,98876.53
2022-12-06T04:36:38.536Z,98879.94
2022-12-06T04:39:05.578Z,98875.63
2022-12-06T04:41:50.871Z,98876.44
2022-12-06T04:44:17.657Z,98869.47
2022-12-06T04:46:44.412Z,98869.41
2022-12-06T04:49:11.047Z,98861.50
2022-12-06T04:51:37.626Z,98869.38
2022-12-06T04:54:05.453Z,98873.78
2022-12-06T04:56:32.022Z,98868.66
2022-12-06T04:58:58.556Z,98868.59
2022-12-06T05:01:25.158Z,98861.59
2022-12-06T05:03:52.631Z,98862.31
2022-12-06T05:06:19.165Z,98864.84
2022-12-06T05:08:45.742Z,98858.19
2022-12-06T05:11:12.626Z,98855.59
2022-12-06T05:13:39.127Z,98858.19
2022-12-06T05:16:07.248Z,98862.44
2022-12-06T05:18:34.499Z,98859.03
2022-12-06T05:21:02.282Z,98865.91
2022-12-06T05:23:29.093Z,98862.63
2022-12-06T05:26:00.299Z,98859.88
2022-12-06T05:28:27.128Z,98866.78
2022-12-06T05:30:54.142Z,98866.00
2022-12-06T05:33:21.096Z,98861.63
2022-12-06T05:35:47.614Z,98865.97
2022-12-06T05:38:14.211Z,98860.81
2022-12-06T05:40:41.883Z,98864.22
2022-12-06T05:43:08.434Z,98860.63
2022-12-06T05:45:37.039Z,98871.72
2022-12-06T05:48:04.216Z,98873.41
2022-12-06T05:50:31.082Z,98876.81
2022-12-06T05:52:59.359Z,98868.97
2022-12-06T05:55:26.769Z,98874.16
2022-12-06T05:57:54.612Z,98879.41
2022-12-06T06:00:21.647Z,98884.94
2022-12-06T06:02:48.328Z,98887.38
2022-12-06T06:05:14.997Z,98888.19
2022-12-06T06:07:41.634Z,98891.69
2022-12-06T06:10:08.494Z,98887.28
2022-12-06T06:12:35.022Z,98888.94
2022-12-06T06:15:01.622Z,98886.41
2022-12-06T06:17:28.353Z,98885.69
2022-12-06T06:19:54.903Z,98881.38
2022-12-06T06:22:23.101Z,98891.59
2022-12-06T06:24:49.654Z,98886.41
2022-12-06T06:27:16.146Z,98888.94
2022-12-06T06:29:45.535Z,98883.72
2022-12-06T06:32:13.767Z,98883.63
2022-12-06T06:34:40.416Z,98875.84
2022-12-06T06:37:06.984Z,98881.94
2022-12-06T06:39:33.590Z,98881.19
2022-12-06T06:42:00.099Z,98879.44
2022-12-06T06:44:26.610Z,98882.94
2022-12-06T06:46:53.170Z,98882.00
2022-12-06T06:49:19.777Z,98879.34
2022-12-06T06:51:46.506Z,98876.81
2022-12-06T06:54:13.123Z,98879.56
2022-12-06T06:56:39.691Z,98879.56
2022-12-06T06:59:06.524Z,98884.78
2022-12-06T07:01:33.329Z,98879.50
2022-12-06T07:04:00.054Z,98876.09
2022-12-06T07:06:26.592Z,98874.31
2022-12-06T07:08:53.155Z,98877.72
2022-12-06T07:11:19.944Z,98877.81
2022-12-06T07:13:51.246Z,98877.78
2022-12-06T07:16:19.529Z,98870.13
2022-12-06T07:18:47.603Z,98877.09
2022-12-06T07:21:16.137Z,98874.94
2022-12-06T07:23:43.235Z,98873.28
2022-12-06T07:26:15.597Z,98873.81
2022-12-06T07:28:44.105Z,98876.19
2022-12-06T07:31:16.321Z,98878.69
2022-12-06T07:33:43.559Z,98880.34
2022-12-06T07:36:13.422Z,98877.69
2022-12-06T07:38:42.669Z,98882.81
2022-12-06T07:41:31.470Z,98875.81
2022-12-06T07:44:19.347Z,98870.63
2022-12-06T07:46:46.679Z,98869.75
2022-12-06T07:49:15.766Z,98874.03
2022-12-06T07:51:43.891Z,98875.72
2022-12-06T07:54:10.483Z,98874.81
2022-12-06T07:56:37.681Z,98877.44
2022-12-06T07:59:04.275Z,98873.06
2022-12-06T08:01:31.276Z,98874.78
2022-12-06T08:04:02.795Z,98874.81
2022-12-06T08:06:31.368Z,98868.66
2022-12-06T08:09:01.001Z,98877.19
2022-12-06T08:11:28.740Z,98872.78
2022-12-06T08:13:55.685Z,98871.00
2022-12-06T08:16:22.325Z,98880.47
2022-12-06T08:18:48.961Z,98879.59
2022-12-06T08:21:16.585Z,98870.19
2022-12-06T08:23:43.126Z,98878.81
2022-12-06T08:26:13.320Z,98883.31
2022-12-06T08:28:40.693Z,98880.72
2022-12-06T08:31:13.336Z,98880.66
2022-12-06T08:33:40.412Z,98882.25
2022-12-06T08:36:09.063Z,98887.44
2022-12-06T08:38:37.544Z,98890.91
2022-12-06T08:41:05.404Z,98884.94
2022-12-06T08:43:32.382Z,98880.78
2022-12-06T08:45:59.043Z,98896.06
2022-12-06T08:48:26.977Z,98895.88
2022-12-06T08:50:53.576Z,98895.16
2022-12-06T08:53:20.112Z,98891.56
2022-12-06T08:56:00.415Z,98890.44
2022-12-06T08:58:29.065Z,98901.06
2022-12-06T09:00:55.762Z,98887.97
2022-12-06T09:03:22.387Z,98889.47
2022-12-06T09:05:48.934Z,98895.38
2022-12-06T09:08:15.576Z,98893.25
2022-12-06T09:10:43.870Z,98899.13
2022-12-06T09:13:10.425Z,98893.03
2022-12-06T09:15:38.588Z,98904.00
2022-12-06T09:18:05.261Z,98899.56
2022-12-06T09:20:31.905Z,98903.69
2022-12-06T09:22:58.459Z,98907.59
2022-12-06T09:25:25.278Z,98904.13
2022-12-06T09:27:53.023Z,98915.28
2022-12-06T09:30:19.672Z,98911.41
2022-12-06T09:32:48.261Z,98923.38
2022-12-06T09:35:15.949Z,98914.63
2022-12-06T09:37:44.224Z,98916.16
2022-12-06T09:40:41.247Z,98919.56
2022-12-06T09:43:40.734Z,98931.34
2022-12-06T09:46:31.663Z,98921.88
2022-12-06T09:49:16.312Z,98927.75
2022-12-06T09:51:53.491Z,98931.16
2022-12-06T09:54:38.959Z,98945.06
2022-12-06T09:57:18.478Z,98945.06
2022-12-06T09:59:51.356Z,98941.44
2022-12-06T10:02:36.726Z,98941.34
2022-12-06T10:05:24.417Z,98935.16
2022-12-06T10:08:38.447Z,98939.25
2022-12-06T10:11:33.758Z,98926.25
2022-12-06T10:14:12.719Z,98920.03
2022-12-06T10:17:08.726Z,98919.06
2022-12-06T10:19:42.103Z,98921.56
2022-12-06T10:22:28.495Z,98919.88
2022-12-06T10:25:11.067Z,98921.56
2022-12-06T10:27:48.261Z,98923.44
2022-12-06T10:30:16.864Z,98919.03
2022-12-06T10:33:14.995Z,98917.16
2022-12-06T10:35:59.945Z,98923.00
2022-12-06T10:38:47.996Z,98922.84
2022-12-06T10:41:30.810Z,98915.88
2022-12-06T10:44:15.699Z,98920.13
2022-12-06T10:47:04.433Z,98920.19
2022-12-06T10:49:41.128Z,98921.97
2022-12-06T10:52:29.563Z,98924.44
2022-12-06T10:54:59.109Z,98919.22
2022-12-06T10:57:51.202Z,98921.88
2022-12-06T11:00:18.400Z,98925.28
2022-12-06T11:03:04.483Z,98911.28
2022-12-06T11:05:37.325Z,98931.19
2022-12-06T11:08:10.704Z,98934.47
2022-12-06T11:10:39.126Z,98924.78
2022-12-06T11:13:37.742Z,98923.84
2022-12-06T11:16:11.095Z,98922.03
2022-12-06T11:18:38.494Z,98933.25
2022-12-06T11:21:11.056Z,98924.53
2022-12-06T11:24:14.005Z,98927.94
2022-12-06T11:26:46.574Z,98927.03
2022-12-06T11:29:15.912Z,98921.81
2022-12-06T11:31:46.886Z,98915.81
2022-12-06T11:34:38.379Z,98918.53
2022-12-06T11:37:06.445Z,98911.56
2022-12-06T11:39:34.052Z,98919.34
2022-12-06T11:42:03.697Z,98908.72
2022-12-06T11:44:42.494Z,98910.41
2022-12-06T11:47:19.099Z,98914.66
2022-12-06T11:49:47.027Z,98911.09
2022-12-06T11:52:35.491Z,98917.22
2022-12-06T11:55:24.173Z,98913.06
2022-12-06T11:58:03.760Z,98915.38
2022-12-06T12:00:31.345Z,98899.56
2022-12-06T12:02:58.602Z,98906.75
2022-12-06T12:05:25.518Z,98895.28
2022-12-06T12:08:02.206Z,98888.44
2022-12-06T12:10:42.658Z,98891.16
2022-12-06T12:13:30.640Z,98884.28
2022-12-06T12:16:01.484Z,98885.47
2022-12-06T12:18:40.971Z,98889.50
2022-12-06T12:21:07.794Z,98882.19
2022-12-06T12:23:43.245Z,98884.88
2022-12-06T12:26:18.134Z,98878.59
2022-12-06T12:29:01.419Z,98878.47
2022-12-06T12:31:28.021Z,98880.63
2022-12-06T12:34:27.698Z,98877.63
2022-12-06T12:36:58.548Z,98874.88
2022-12-06T12:39:35.255Z,98873.03
2022-12-06T12:42:02.389Z,98865.28
2022-12-06T12:44:38.053Z,98865.44
2022-12-06T12:47:19.922Z,98858.38
2022-12-06T12:50:20.146Z,98859.13
2022-12-06T12:52:47.310Z,98857.56
2022-12-06T12:55:29.069Z,98859.13
2022-12-06T12:57:58.963Z,98855.38
2022-12-06T13:00:37.550Z,98859.59
2022-12-06T13:03:34.440Z,98850.28
2022-12-06T13:05:57.473Z,98863.00
2022-12-06T13:08:29.073Z,98859.69
2022-12-06T13:10:59.452Z,98864.75
2022-12-06T13:13:35.175Z,98864.78
2022-12-06T13:16:10.151Z,98873.34
2022-12-06T13:18:54.370Z,98871.59
2022-12-06T13:21:27.835Z,98868.19
2022-12-06T13:24:07.708Z,98870.88
2022-12-06T13:26:56.134Z,98864.91
2022-12-06T13:29:22.617Z,98857.72
2022-12-06T13:31:52.520Z,98867.94
2022-12-06T13:34:38.051Z,98866.00
2022-12-06T13:37:28.960Z,98869.19
2022-12-06T13:39:56.976Z,98864.88
2022-12-06T13:42:42.291Z,98864.69
2022-12-06T13:45:45.591Z,98859.41
2022-12-06T13:48:24.654Z,98862.75
2022-12-06T13:50:55.815Z,98859.34
2022-12-06T13:53:23.466Z,98861.16
2022-12-06T13:55:59.078Z,98861.13
2022-12-06T13:58:27.233Z,98860.16
2022-12-06T14:00:55.373Z,98847.88
2022-12-06T14:03:23.425Z,98850.44
2022-12-06T14:06:09.125Z,98850.59
2022-12-06T14:08:53.690Z,98853.19
2022-12-06T14:11:26.365Z,98858.41
2022-12-06T14:13:55.849Z,98859.34
2022-12-06T14:16:40.405Z,98861.16
2022-12-06T14:19:21.002Z,98861.19
2022-12-06T14:22:04.557Z,98863.91
2022-12-06T14:24:35.639Z,98862.19
2022-12-06T14:27:06.915Z,98865.81
2022-12-06T14:29:33.969Z,98867.59
2022-12-06T14:32:00.475Z,98868.69
2022-12-06T14:34:29.726Z,98867.19
2022-12-06T14:36:57.881Z,98873.19
2022-12-06T14:39:28.057Z,98862.78
2022-12-06T14:42:19.323Z,98853.22
2022-12-06T14:45:00.356Z,98858.28
2022-12-06T14:47:28.999Z,98853.94
2022-12-06T14:50:17.800Z,98847.84
2022-12-06T14:53:12.823Z,98855.09
2022-12-06T14:55:57.647Z,98860.41
2022-12-06T14:58:27.845Z,98858.72
2022-12-06T15:00:55.790Z,98850.97
2022-12-06T15:03:25.668Z,98852.66
2022-12-06T15:06:17.164Z,98845.78
2022-12-06T15:09:03.891Z,98849.19
2022-12-06T15:11:49.040Z,98846.59
2022-12-06T15:14:19.210Z,98846.72
2022-12-06T15:16:58.871Z,98839.84
2022-12-06T15:19:26.173Z,98845.25
2022-12-06T15:21:53.466Z,98852.25
2022-12-06T15:24:26.085Z,98842.78
2022-12-06T15:26:53.486Z,98850.56
2022-12-06T15:29:20.555Z,98850.69
2022-12-06T15:31:58.164Z,98841.16
2022-12-06T15:34:30.346Z,98842.06
2022-12-06T15:37:30.181Z,98838.59
2022-12-06T15:39:45.508Z,98835.25
2022-12-06T15:42:20.042Z,98840.50
2022-12-06T15:44:49.860Z,98833.63
2022-12-06T15:47:18.362Z,98847.59
2022-12-06T15:49:45.602Z,98853.81
2022-12-06T15:52:17.150Z,98856.44
2022-12-06T15:54:44.013Z,98853.13
2022-12-06T15:57:10.698Z,98859.25
2022-12-06T15:59:37.339Z,98855.03
2022-12-06T16:02:04.016Z,98856.88
2022-12-06T16:04:32.603Z,98854.28
2022-12-06T16:06:59.171Z,98850.16
2022-12-06T16:09:25.722Z,98849.50
2022-12-06T16:11:52.330Z,98839.97
2022-12-06T16:14:18.873Z,98844.31
2022-12-06T16:16:45.975Z,98845.38
2022-12-06T16:19:12.722Z,98853.19
2022-12-06T16:21:54.736Z,98852.41
2022-12-06T16:24:21.582Z,98857.69
2022-12-06T16:26:48.359Z,98853.50
2022-12-06T16:29:25.872Z,98857.97
2022-12-06T16:31:53.095Z,98861.50
2022-12-06T16:34:20.430Z,98858.09
2022-12-06T16:36:57.375Z,98862.44
2022-12-06T16:39:24.385Z,98860.69
2022-12-06T16:41:51.066Z,98867.63
2022-12-06T16:44:17.639Z,98869.31
2022-12-06T16:46:45.719Z,98859.84
2022-12-06T16:49:45.093Z,98857.28
2022-12-06T16:52:06.484Z,98863.41
2022-12-06T16:54:33.450Z,98859.91
2022-12-06T16:57:00.036Z,98854.78
2022-12-06T16:59:26.589Z,98852.22
2022-12-06T17:01:55.186Z,98843.63
2022-12-06T17:04:22.520Z,98841.91
2022-12-06T17:06:49.334Z,98853.13
2022-12-06T17:09:16.334Z,98847.91
2022-12-06T17:12:02.055Z,98843.53
2022-12-06T17:14:29.106Z,98857.41
2022-12-06T17:16:56.934Z,98851.31
2022-12-06T17:19:27.837Z,98849.63
2022-12-06T17:21:54.521Z,98848.81
2022-12-06T17:24:22.333Z,98864.41
2022-12-06T17:26:49.436Z,98860.97
2022-12-06T17:29:16.223Z,98858.38
2022-12-06T17:31:43.267Z,98856.69
2022-12-06T17:34:12.801Z,98868.78
2022-12-06T17:36:40.240Z,98867.00
2022-12-06T17:39:11.032Z,98870.47
2022-12-06T17:41:56.281Z,98866.09
2022-12-06T17:44:23.038Z,98868.59
2022-12-06T17:46:49.629Z,98865.19
2022-12-06T17:49:19.344Z,98865.16
2022-12-06T17:51:46.514Z,98868.56
2022-12-06T17:54:13.920Z,98871.13
2022-12-06T17:56:43.005Z,98872.81
2022-12-06T17:59:15.920Z,98883.22
2022-12-06T18:02:13.483Z,98875.41
2022-12-06T18:04:31.040Z,98877.19
2022-12-06T18:06:58.673Z,98870.22
2022-12-06T18:09:25.501Z,98879.78
2022-12-06T18:11:52.141Z,98872.97
2022-12-06T18:14:18.995Z,98871.19
2022-12-06T18:16:48.082Z,98873.97
2022-12-06T18:19:18.492Z,98882.59
2022-12-06T18:21:45.930Z,98881.75
2022-12-06T18:24:24.560Z,98885.28
2022-12-06T18:26:53.484Z,98881.00
2022-12-06T18:29:23.088Z,98878.41
2022-12-06T18:31:50.685Z,98876.75
2022-12-06T18:34:18.078Z,98876.75
2022-12-06T18:36:44.793Z,98874.16
2022-12-06T18:39:15.677Z,98870.69
2022-12-06T18:41:46.091Z,98878.50
2022-12-06T18:44:13.681Z,98879.38
2022-12-06T18:46:42.339Z,98875.91
2022-12-06T18:49:11.202Z,98888.03
2022-12-06T18:51:38.766Z,98887.25
2022-12-06T18:54:06.207Z,98897.56
2022-12-06T18:56:33.884Z,98900.28
2022-12-06T18:59:02.540Z,98895.94
2022-12-06T19:01:35.098Z,98892.47
2022-12-06T19:04:03.510Z,98893.34
2022-12-06T19:06:33.340Z,98892.56
2022-12-06T19:09:02.762Z,98892.63
2022-12-06T19:11:29.313Z,98896.94
2022-12-06T19:13:58.008Z,98893.47
2022-12-06T19:16:29.068Z,98890.06
2022-12-06T19:18:58.036Z,98892.06
2022-12-06T19:21:25.873Z,98884.22
2022-12-06T19:23:54.586Z,98885.91
2022-12-06T19:26:21.335Z,98884.22
2022-12-06T19:28:48.272Z,98886.81
2022-12-06T19:31:15.403Z,98886.84
2022-12-06T19:33:44.370Z,98880.75
2022-12-06T19:36:17.172Z,98883.31
2022-12-06T19:38:44.423Z,98876.44
2022-12-06T19:41:16.961Z,98883.44
2022-12-06T19:44:02.218Z,98877.38
2022-12-06T19:46:30.419Z,98886.22
2022-12-06T19:48:59.409Z,98887.31
2022-12-06T19:51:28.166Z,98880.34
2022-12-06T19:53:57.849Z,98881.13
2022-12-06T19:56:25.479Z,98870.72
2022-12-06T19:58:52.206Z,98886.22
2022-12-06T20:01:29.932Z,98872.41
2022-12-06T20:03:56.745Z,98874.97
2022-12-06T20:06:27.158Z,98879.44
2022-12-06T20:08:58.319Z,98881.09
2022-12-06T20:11:43.700Z,98886.41
2022-12-06T20:14:16.530Z,98886.56
2022-12-06T20:16:43.494Z,98887.31
2022-12-06T20:19:17.341Z,98888.13
2022-12-06T20:21:44.880Z,98890.13
2022-12-06T20:24:13.832Z,98894.34
2022-12-06T20:26:40.628Z,98889.88
2022-12-06T20:29:07.983Z,98876.13
2022-12-06T20:31:35.799Z,98874.50
2022-12-06T20:34:07.928Z,98874.50
2022-12-06T20:36:36.805Z,98878.88
2022-12-06T20:39:03.843Z,98884.91
2022-12-06T20:41:33.156Z,98882.34
2022-12-06T20:44:01.526Z,98886.59
2022-12-06T20:46:30.629Z,98893.47
2022-12-06T20:49:02.549Z,98892.56
2022-12-06T20:51:30.354Z,98889.00
2022-12-06T20:53:59.055Z,98891.53
2022-12-06T20:56:31.755Z,98882.88
2022-12-06T20:59:00.326Z,98888.91
2022-12-06T21:01:29.957Z,98892.38
2022-12-06T21:03:57.161Z,98895.88
2022-12-06T21:06:25.082Z,98895.81
2022-12-06T21:08:52.473Z,98888.06
2022-12-06T21:11:23.320Z,98891.50
2022-12-06T21:13:55.600Z,98891.53
2022-12-06T21:16:26.274Z,98889.81
2022-12-06T21:18:59.546Z,98896.78
2022-12-06T21:21:29.315Z,98890.69
2022-12-06T21:23:59.560Z,98895.78
2022-12-06T21:26:26.677Z,98892.31
2022-12-06T21:28:54.538Z,98885.41
2022-12-06T21:31:26.382Z,98887.94
2022-12-06T21:33:53.100Z,98887.94
2022-12-06T21:36:19.718Z,98885.31
2022-12-06T21:38:46.239Z,98887.03
2022-12-06T21:41:13.863Z,98872.34
2022-12-06T21:43:40.528Z,98888.00
2022-12-06T21:46:10.329Z,98884.50
2022-12-06T21:48:36.993Z,98887.19
2022-12-06T21:51:06.450Z,98878.97
2022-12-06T21:53:33.426Z,98889.59
2022-12-06T21:56:04.572Z,98893.03
2022-12-06T21:58:31.015Z,98890.34
2022-12-06T22:01:03.987Z,98894.63
2022-12-06T22:03:30.537Z,98892.84
2022-12-06T22:05:57.145Z,98891.16
2022-12-06T22:08:23.728Z,98896.41
2022-12-06T22:10:52.593Z,98892.09
2022-12-06T22:13:19.363Z,98889.44
2022-12-06T22:15:46.069Z,98892.84
2022-12-06T22:18:12.658Z,98885.88
2022-12-06T22:20:39.206Z,98894.50
2022-12-06T22:23:05.731Z,98898.75
2022-12-06T22:25:32.269Z,98892.69
2022-12-06T22:27:58.888Z,98894.38
2022-12-06T22:30:25.398Z,98891.03
2022-12-06T22:32:52.003Z,98895.31
2022-12-06T22:35:18.584Z,98894.44
2022-12-06T22:37:45.145Z,98891.06
2022-12-06T22:40:11.975Z,98892.81
2022-12-06T22:42:38.829Z,98894.47
2022-12-06T22:45:06.060Z,98890.97
2022-12-06T22:47:32.625Z,98905.72
2022-12-06T22:49:59.482Z,98904.84
2022-12-06T22:52:26.231Z,98894.50
2022-12-06T22:54:52.767Z,98904.91
2022-12-06T22:57:19.423Z,98908.38
2022-12-06T22:59:46.216Z,98904.19
2022-12-06T23:02:12.813Z,98901.78
2022-12-06T23:04:39.435Z,98900.94
2022-12-06T23:07:05.977Z,98894.78
2022-12-06T23:09:32.584Z,98893.91
2022-12-06T23:11:59.143Z,98897.28
2022-12-06T23:14:25.676Z,98892.91
2022-12-06T23:16:52.241Z,98892.91
2022-12-06T23:19:18.869Z,98895.44
2022-12-06T23:21:46.713Z,98898.03
2022-12-06T23:24:14.211Z,98882.44
2022-12-06T23:26:44.047Z,98885.03
2022-12-06T23:29:11.220Z,98888.47
2022-12-06T23:31:41.022Z,98880.66
2022-12-06T23:34:20.566Z,98891.06
2022-12-06T23:36:47.291Z,98895.44
2022-12-06T23:39:14.162Z,98898.00
2022-12-06T23:41:40.891Z,98888.47
2022-12-06T23:44:07.931Z,98885.06
2022-12-06T23:46:36.871Z,98879.00
2022-12-06T23:49:05.096Z,98890.31
2022-12-06T23:51:36.773Z,98886.78
2022-12-06T23:54:05.737Z,98888.47
2022-12-06T23:56:38.458Z,98881.72
2022-12-06T23:59:06.907Z,98880.88
